RJOMRJAA

Guest
Details From RJOM - MATSUYAMA
To RJAA - NARITA INTL
Flight Number -
Tags generated
Created
Modified
Stats Distance 404 nm / 748 km
Max Altitude 35,000 ft / 10,668 m
Waypoints 9
Social Downloads 6
Likes 0
Share VATSIM

Download

Looking for another format? Having issues loading an existing format? Contact us
Advertisement - Login to hide

Notes

Basic altitude profile: - Ascent Rate: 2500ft/min - Ascent Speed: 250kts - Cruise Altitude: 35000ft - Cruise Speed: 420kts - Descent Rate: 1500ft/min - Descent Speed: 250kts Options: - Use NATs: yes - Use PACOTS: yes - Use low airways: yes - Use high airways: yes

Route

RJOM MIZKI V17 LABEL Y50 HYE RJAA

ID Type Via Altitude Latitude Longitude Leg Dist Tot Dist Heading (true) Name
O RJOM APT - 0 ft / 0 m 33.82726˚ 132.69963˚ - 0 nm - MATSUYAMA
MIZKI FIX - 33,700 ft / 10,272 m 34.30956˚ 134.50730˚ 94 nm 94 nm 72° / 73° -
PROOF FIX V17 (AWY-HI) 35,000 ft / 10,668 m 34.38135˚ 134.87303˚ 18 nm 113 nm 77° / 77° -
SKE VOR V17 (AWY-HI) 35,000 ft / 10,668 m 34.49195˚ 135.44833˚ 29 nm 142 nm 77° / 77° SHINODA VOR-DME
LABEL FIX V17 (AWY-HI) 35,000 ft / 10,668 m 34.58781˚ 136.18125˚ 36 nm 179 nm 81° / 81° -
KOZUN FIX Y50 (AWY-HI) 35,000 ft / 10,668 m 34.94699˚ 136.93033˚ 42 nm 221 nm 60° / 60° -
HORAI FIX Y50 (AWY-HI) 29,800 ft / 9,083 m 35.05129˚ 137.68721˚ 37 nm 259 nm 80° / 81° -
HYE VOR Y50 (AWY-LO) 15,000 ft / 4,572 m 35.25583˚ 139.58752˚ 94 nm 353 nm 82° / 83° YOKOSUKA VOR-DME
O RJAA APT - 0 ft / 0 m 35.77655˚ 140.38277˚ 49 nm 403 nm 51° / 51° NARITA INTL

Altitude Profile

Advertisement - Login to hide

Weather


0- 5 10 15 20 25 30 35+ Temperature / ° C

Clouds and Precipitation
Forecast for 2017-12-14 18:00 UTC. Updated 20 minutes ago

Ground ~20,000 ft ~40,000 ft Winds

RJOM

Details ICAO RJOM (MYJ)
Name MATSUYAMA
Region Japan
Timezone Asia/Tokyo (UTC+9.0)
Stats Elevation 25 ft / 8 m (AMSL)
Location 33.827257° 132.699631°
Runways 1
Magnetic Variation 7.513° W

METAR

Not found

TAF

TAF RJOM 141109Z 1412/1518 12006KT 9999 FEW020 SCT050 BECMG 1500/1503 33005KT BECMG 1506/1509 12009KT

Decode

Departure Runways

ID Width Length Bearing (true) Bearing (mag) Surface Threshold Offset Overrun Length
14 150 ft / 46 m 8,203 ft / 2,500 m 130.67° 138.18° Asphalt 0 ft / 0 m 206 ft / 63 m
32 150 ft / 46 m 8,203 ft / 2,500 m 310.68° 318.19° Asphalt 0 ft / 0 m 195 ft / 59 m

RJAA

Details ICAO RJAA (NRT)
Name NARITA INTL
Region Japan
Timezone Asia/Tokyo (UTC+9.0)
Stats Elevation 141 ft / 43 m (AMSL)
Location 35.776552° 140.382770°
Runways 2
Magnetic Variation 7.405° W

METAR

RJAA 141730Z VRB01KT CAVOK M01/M04 Q1024 NOSIG RMK A3025

Decode

TAF

TAF RJAA 141107Z 1412/1518 36005KT 9999 FEW030= TAF RJBB 141108Z 1412/1518 04010KT 9999 FEW020 SCT040 BECMG 1512/1515 17006KT

Decode

Destination Runways

ID Width Length Bearing (true) Bearing (mag) Surface Threshold Offset Overrun Length
16L 196 ft / 60 m 7,162 ft / 2,183 m 149.61° 157.02° Asphalt 190 ft / 58 m 0 ft / 0 m
16R 196 ft / 60 m 13,142 ft / 4,006 m 149.61° 157.02° Asphalt 0 ft / 0 m 410 ft / 125 m
34L 196 ft / 60 m 13,142 ft / 4,006 m 329.62° 337.03° Asphalt 0 ft / 0 m 415 ft / 126 m
34R 196 ft / 60 m 7,162 ft / 2,183 m 329.62° 337.03° Asphalt 190 ft / 58 m 0 ft / 0 m

Approach Navaids

Runway Type Ident Frequency Range Bearing (true) Bearing (mag) Slope Elevation
16L Localiser ITM 110.70 MHz 18 nm / 33 km 149.62° 157.02° - 141 ft / 43 m (AMSL)
16L Glidescope ITM 110.70 MHz 10 nm / 19 km 149.62° 157.02° 3.00° 141 ft / 43 m (AMSL)
16L DME ITM 110.70 MHz 18 nm / 33 km - - - 145 ft / 44 m (AMSL)
16R Localiser IKF 111.50 MHz 18 nm / 33 km 149.63° 157.03° - 141 ft / 43 m (AMSL)
16R Glidescope IKF 111.50 MHz 10 nm / 19 km 149.62° 157.02° 3.00° 141 ft / 43 m (AMSL)
16R DME IKF 111.50 MHz 18 nm / 33 km - - - 145 ft / 44 m (AMSL)
34L Localiser IYQ 111.90 MHz 18 nm / 33 km 329.61° 337.01° - 141 ft / 43 m (AMSL)
34L Glidescope IYQ 111.90 MHz 10 nm / 19 km 329.62° 337.02° 3.00° 141 ft / 43 m (AMSL)
34L DME IYQ 111.90 MHz 18 nm / 33 km - - - 153 ft / 47 m (AMSL)
34R Localiser ITJ 110.90 MHz 18 nm / 33 km 329.62° 337.02° - 141 ft / 43 m (AMSL)
34R Glidescope ITJ 110.90 MHz 10 nm / 19 km 329.62° 337.02° 3.00° 141 ft / 43 m (AMSL)
34R DME ITJ 110.90 MHz 18 nm / 33 km - - - 148 ft / 45 m (AMSL)

Popular Alternatives